createdAt,value
2023-05-13T00:00:25.997Z,0.00
2023-05-13T00:01:26.000Z,0.00
2023-05-13T00:02:26.069Z,0.00
2023-05-13T00:03:26.313Z,0.00
2023-05-13T00:04:26.084Z,0.00
2023-05-13T00:05:26.117Z,0.00
2023-05-13T00:06:26.377Z,0.00
2023-05-13T00:07:26.370Z,0.00
2023-05-13T00:08:26.197Z,0.00
2023-05-13T00:09:26.426Z,0.00
2023-05-13T00:10:26.257Z,0.00
2023-05-13T00:11:26.280Z,0.00
2023-05-13T00:12:26.315Z,0.00
2023-05-13T00:13:26.336Z,0.00
2023-05-13T00:14:26.383Z,0.00
2023-05-13T00:15:26.417Z,0.00
2023-05-13T00:16:26.486Z,0.00
2023-05-13T00:17:26.479Z,0.00
2023-05-13T00:18:26.539Z,0.00
2023-05-13T00:19:26.507Z,0.00
2023-05-13T00:20:26.545Z,0.00
2023-05-13T00:21:26.568Z,0.00
2023-05-13T00:22:26.603Z,0.00
2023-05-13T00:23:26.645Z,0.00
2023-05-13T00:24:26.649Z,0.00
2023-05-13T00:25:26.674Z,0.00
2023-05-13T00:26:26.923Z,0.00
2023-05-13T00:30:26.814Z,0.00
2023-05-13T00:31:26.898Z,0.00
2023-05-13T00:32:26.924Z,0.00
2023-05-13T00:33:26.900Z,0.00
2023-05-13T00:34:26.935Z,0.00
2023-05-13T00:35:26.978Z,0.00
2023-05-13T00:36:26.981Z,0.00
2023-05-13T00:38:27.039Z,0.00
2023-05-13T00:39:27.286Z,0.00
2023-05-13T00:40:27.617Z,0.00
2023-05-13T00:41:27.626Z,0.00
2023-05-13T00:42:27.161Z,0.00
2023-05-13T00:43:27.182Z,0.00
2023-05-13T00:44:27.253Z,0.00
2023-05-13T00:46:49.887Z,0.00
2023-05-13T00:47:49.977Z,0.00
2023-05-13T00:48:49.924Z,0.00
2023-05-13T00:49:49.968Z,0.00
2023-05-13T00:50:49.989Z,0.00
2023-05-13T00:51:50.017Z,0.00
2023-05-13T00:52:50.038Z,0.00
2023-05-13T00:53:50.066Z,0.00
2023-05-13T00:54:50.088Z,0.00
2023-05-13T00:55:50.119Z,0.00
2023-05-13T00:56:50.146Z,0.00
2023-05-13T00:57:50.175Z,0.00
2023-05-13T00:58:50.213Z,0.00
2023-05-13T00:59:50.233Z,0.00
2023-05-13T01:00:50.292Z,0.00
2023-05-13T01:01:50.486Z,0.00
2023-05-13T01:03:50.359Z,0.00
2023-05-13T01:05:57.980Z,0.00
2023-05-13T01:06:58.018Z,0.00
2023-05-13T01:07:58.028Z,0.00
2023-05-13T01:08:58.070Z,0.00
2023-05-13T01:09:58.079Z,0.00
2023-05-13T01:10:58.120Z,0.00
2023-05-13T01:11:58.453Z,0.00
2023-05-13T01:12:58.372Z,0.00
2023-05-13T01:13:58.200Z,0.00
2023-05-13T01:15:58.458Z,0.00
2023-05-13T01:16:58.559Z,0.00
2023-05-13T01:17:58.613Z,0.00
2023-05-13T01:18:58.377Z,0.00
2023-05-13T01:19:58.567Z,0.00
2023-05-13T01:21:45.937Z,0.00
2023-05-13T01:22:45.978Z,0.00
2023-05-13T01:23:45.997Z,0.00
2023-05-13T01:26:46.285Z,0.00
2023-05-13T01:28:46.121Z,0.00
2023-05-13T01:29:46.160Z,0.00
2023-05-13T01:31:46.298Z,0.00
2023-05-13T01:32:46.297Z,0.00
2023-05-13T01:33:46.272Z,0.00
2023-05-13T01:34:46.371Z,0.00
2023-05-13T01:35:46.310Z,0.00
2023-05-13T01:36:46.970Z,0.00
2023-05-13T01:37:47.618Z,0.00
2023-05-13T01:43:46.955Z,0.00
2023-05-13T01:44:46.571Z,0.00
2023-05-13T01:45:46.585Z,0.00
2023-05-13T01:49:47.747Z,0.00
2023-05-13T02:00:46.993Z,0.00
2023-05-13T02:01:47.055Z,0.00
2023-05-13T02:02:47.341Z,0.00
2023-05-13T02:06:47.595Z,0.00
2023-05-13T02:11:49.042Z,0.00
2023-05-13T02:13:48.282Z,0.00
2023-05-13T02:14:48.712Z,0.00
2023-05-13T02:16:47.551Z,0.00
2023-05-13T02:17:47.499Z,0.00
2023-05-13T02:18:47.556Z,0.00
2023-05-13T02:19:47.503Z,0.00
2023-05-13T02:20:47.532Z,0.00
2023-05-13T02:21:47.571Z,0.00
2023-05-13T02:22:47.686Z,0.00
2023-05-13T02:23:47.629Z,0.00
2023-05-13T02:24:47.653Z,0.00
2023-05-13T02:25:47.693Z,0.00
2023-05-13T02:26:47.734Z,0.00
2023-05-13T02:27:47.953Z,0.00
2023-05-13T02:28:47.998Z,0.00
2023-05-13T02:29:47.781Z,0.00
2023-05-13T02:30:47.804Z,0.00
2023-05-13T02:31:47.846Z,0.00
2023-05-13T02:32:47.893Z,0.00
2023-05-13T02:33:47.894Z,0.00
2023-05-13T02:36:47.962Z,0.00
2023-05-13T02:37:47.994Z,0.00
2023-05-13T02:38:48.248Z,0.00
2023-05-13T02:39:48.060Z,0.00
2023-05-13T02:40:48.515Z,0.00
2023-05-13T02:50:51.796Z,0.00
2023-05-13T02:53:49.055Z,0.00
2023-05-13T02:58:49.121Z,0.00
2023-05-13T03:00:50.054Z,0.00
2023-05-13T03:13:49.921Z,4.00
2023-05-13T03:14:49.972Z,0.00
2023-05-13T03:17:50.490Z,4.00
2023-05-13T03:18:50.514Z,4.00
2023-05-13T03:30:49.465Z,32.00
2023-05-13T03:31:49.567Z,40.00
2023-05-13T03:32:49.593Z,44.00
2023-05-13T03:33:49.547Z,52.00
2023-05-13T03:34:49.569Z,60.00
2023-05-13T03:35:49.595Z,64.00
2023-05-13T03:36:49.608Z,76.00
2023-05-13T03:37:49.648Z,84.00
2023-05-13T03:38:49.671Z,92.00
2023-05-13T03:41:49.747Z,136.00
2023-05-13T03:42:49.771Z,152.00
2023-05-13T03:43:49.816Z,168.00
2023-05-13T03:44:49.828Z,184.00
2023-05-13T03:45:49.855Z,204.00
2023-05-13T03:46:50.000Z,224.00
2023-05-13T03:47:50.260Z,240.00
2023-05-13T03:48:49.951Z,260.00
2023-05-13T03:49:49.981Z,280.00
2023-05-13T03:50:50.307Z,300.00
2023-05-13T03:51:50.027Z,320.00
2023-05-13T03:52:50.118Z,340.00
2023-05-13T03:53:50.086Z,364.00
2023-05-13T03:54:50.313Z,384.00
2023-05-13T03:55:50.123Z,412.00
2023-05-13T03:56:50.156Z,436.00
2023-05-13T03:57:50.186Z,464.00
2023-05-13T03:58:50.208Z,492.00
2023-05-13T03:59:50.566Z,524.00
2023-05-13T04:00:50.258Z,564.00
2023-05-13T04:01:50.339Z,604.00
2023-05-13T04:02:50.399Z,648.00
2023-05-13T04:03:50.350Z,696.00
2023-05-13T04:04:50.384Z,752.00
2023-05-13T04:05:50.426Z,812.00
2023-05-13T04:06:50.439Z,872.00
2023-05-13T04:07:50.448Z,936.00
2023-05-13T04:08:50.676Z,1004.00
2023-05-13T04:09:50.520Z,1080.00
2023-05-13T04:10:50.539Z,1160.00
2023-05-13T04:11:50.784Z,1240.00
2023-05-13T04:12:50.904Z,1316.00
2023-05-13T04:13:50.825Z,1396.00
2023-05-13T04:16:51.205Z,1652.00
2023-05-13T04:17:50.761Z,1728.00
2023-05-13T04:20:50.840Z,1952.00
2023-05-13T04:21:51.046Z,2024.00
2023-05-13T04:26:51.488Z,2440.00
2023-05-13T04:27:51.213Z,2524.00
2023-05-13T04:29:51.070Z,2692.00
2023-05-13T04:30:51.376Z,2852.00
2023-05-13T04:31:52.453Z,2896.00
2023-05-13T04:33:52.579Z,2980.00
2023-05-13T04:40:51.593Z,3656.00
2023-05-13T04:44:51.777Z,3900.00
2023-05-13T04:50:52.337Z,4432.00
2023-05-13T04:51:51.677Z,5772.00
2023-05-13T05:42:25.745Z,9364.00
2023-05-13T05:52:49.905Z,51840.00
2023-05-13T05:54:50.470Z,55680.00
2023-05-13T05:55:51.681Z,52992.00
2023-05-13T05:56:50.027Z,36256.00
2023-05-13T05:57:51.486Z,32096.00
2023-05-13T06:00:23.194Z,44832.00
2023-05-13T06:01:20.228Z,48864.00
2023-05-13T06:02:20.308Z,52192.00
2023-05-13T06:03:20.421Z,55200.00
2023-05-13T06:04:20.332Z,54880.00
2023-05-13T06:05:20.338Z,57760.00
2023-05-13T06:06:20.372Z,58976.00
2023-05-13T06:07:20.736Z,60640.00
2023-05-13T06:08:20.429Z,57568.00
2023-05-13T06:09:20.474Z,57440.00
2023-05-13T06:10:20.643Z,53728.00
2023-05-13T06:11:20.531Z,47264.00
2023-05-13T06:12:20.765Z,31648.00
2023-05-13T06:13:20.618Z,35488.00
2023-05-13T06:14:20.643Z,24576.00
2023-05-13T06:15:20.661Z,24768.00
2023-05-13T06:16:20.761Z,29216.00
2023-05-13T06:17:20.727Z,31520.00
2023-05-13T06:18:20.967Z,36480.00
2023-05-13T06:19:20.796Z,35104.00
2023-05-13T06:20:20.957Z,39520.00
2023-05-13T06:21:20.855Z,35744.00
2023-05-13T06:22:23.515Z,40288.00
2023-05-13T06:23:20.929Z,36864.00
2023-05-13T06:24:20.955Z,37312.00
2023-05-13T06:25:21.007Z,44448.00
2023-05-13T06:26:21.040Z,41984.00
2023-05-13T06:27:21.057Z,31872.00
2023-05-13T06:28:21.302Z,49536.00
2023-05-13T06:29:21.148Z,61504.00
2023-05-13T06:30:21.376Z,65344.00
2023-05-13T06:31:21.276Z,66464.00
2023-05-13T06:32:21.247Z,68608.00
2023-05-13T06:35:51.548Z,72416.00
2023-05-13T06:38:34.875Z,74624.00
2023-05-13T06:39:35.009Z,57664.00
2023-05-13T06:40:34.332Z,63744.00
2023-05-13T06:42:34.416Z,56704.00
2023-05-13T06:44:35.104Z,69408.00
2023-05-13T06:45:37.116Z,71392.00
2023-05-13T06:46:34.614Z,72128.00
2023-05-13T06:47:34.593Z,60032.00
2023-05-13T06:48:34.608Z,63616.00
2023-05-13T06:49:34.642Z,72480.00
2023-05-13T06:51:34.707Z,54816.00
2023-05-13T06:52:34.758Z,26880.00
2023-05-13T06:53:34.808Z,67680.00
2023-05-13T06:54:34.831Z,67488.00
2023-05-13T06:57:17.670Z,64864.00
2023-05-13T07:02:24.110Z,67424.00
2023-05-13T07:03:26.799Z,70496.00
2023-05-13T07:04:24.157Z,71840.00
2023-05-13T07:05:24.230Z,70848.00
2023-05-13T07:06:26.362Z,68672.00
2023-05-13T07:07:24.269Z,69568.00
2023-05-13T07:10:24.615Z,66976.00
2023-05-13T07:11:24.412Z,63264.00
2023-05-13T07:14:24.527Z,66528.00
2023-05-13T07:15:25.162Z,68928.00
2023-05-13T07:17:28.630Z,69792.00
2023-05-13T07:18:24.778Z,64992.00
2023-05-13T07:20:27.364Z,55008.00
2023-05-13T07:21:24.787Z,24800.00
2023-05-13T07:22:24.828Z,72768.00
2023-05-13T07:24:25.214Z,16560.00
2023-05-13T07:25:25.155Z,68672.00
2023-05-13T07:32:25.972Z,68864.00
2023-05-13T07:38:01.478Z,12516.00
2023-05-13T07:39:02.312Z,11712.00
2023-05-13T07:45:01.708Z,23456.00
2023-05-13T07:46:01.755Z,18208.00
2023-05-13T07:48:01.887Z,16832.00
2023-05-13T07:49:01.851Z,46720.00
2023-05-13T07:50:02.100Z,19872.00
2023-05-13T07:52:01.973Z,20928.00
2023-05-13T07:53:02.014Z,29120.00
2023-05-13T07:54:02.056Z,21952.00
2023-05-13T07:55:02.071Z,30080.00
2023-05-13T07:56:02.313Z,43456.00
2023-05-13T07:57:02.136Z,21184.00
2023-05-13T07:58:02.196Z,22208.00
2023-05-13T07:59:02.215Z,48032.00
2023-05-13T08:00:02.247Z,45888.00
2023-05-13T08:01:02.306Z,72896.00
2023-05-13T08:02:02.338Z,69728.00
2023-05-13T08:03:02.409Z,71968.00
2023-05-13T08:04:02.779Z,74816.00
2023-05-13T08:05:02.515Z,73856.00
2023-05-13T08:06:02.478Z,72608.00
2023-05-13T08:07:02.524Z,75328.00
2023-05-13T08:08:03.054Z,73760.00
2023-05-13T08:11:40.523Z,57888.00
2023-05-13T08:12:40.383Z,57184.00
2023-05-13T08:13:40.376Z,55552.00
2023-05-13T08:14:40.421Z,40512.00
2023-05-13T08:15:40.466Z,31360.00
2023-05-13T08:16:40.532Z,29408.00
2023-05-13T08:18:24.163Z,36992.00
2023-05-13T08:19:23.136Z,38848.00
2023-05-13T08:20:23.210Z,24640.00
2023-05-13T08:21:23.424Z,20576.00
2023-05-13T08:22:23.455Z,23008.00
2023-05-13T08:23:30.760Z,42912.00
2023-05-13T08:24:23.330Z,39488.00
2023-05-13T08:25:23.586Z,20928.00
2023-05-13T08:26:23.388Z,20928.00
2023-05-13T08:27:23.748Z,27872.00
2023-05-13T08:28:23.465Z,55104.00
2023-05-13T08:29:23.509Z,50432.00
2023-05-13T08:30:23.562Z,56864.00
2023-05-13T08:31:23.597Z,60384.00
2023-05-13T08:32:23.658Z,59264.00
2023-05-13T08:33:23.663Z,59776.00
2023-05-13T08:34:23.700Z,61440.00
2023-05-13T08:35:23.972Z,61088.00
2023-05-13T08:36:23.765Z,59808.00
2023-05-13T08:37:23.817Z,58880.00
2023-05-13T08:38:23.854Z,58592.00
2023-05-13T08:39:23.883Z,57312.00
2023-05-13T08:40:27.361Z,54784.00
2023-05-13T08:41:23.960Z,55616.00
2023-05-13T08:42:23.990Z,55552.00
2023-05-13T08:43:24.209Z,56096.00
2023-05-13T08:44:24.398Z,57312.00
2023-05-13T08:45:24.185Z,56480.00
2023-05-13T08:46:27.835Z,57152.00
2023-05-13T08:47:24.221Z,54880.00
2023-05-13T08:48:24.448Z,53824.00
2023-05-13T08:52:24.384Z,49152.00
2023-05-13T08:53:24.427Z,43840.00
2023-05-13T08:55:07.016Z,42432.00
2023-05-13T08:56:07.068Z,12768.00
2023-05-13T08:57:07.112Z,10308.00
2023-05-13T09:00:07.686Z,12412.00
2023-05-13T09:01:07.321Z,13056.00
2023-05-13T09:02:07.494Z,13748.00
2023-05-13T09:03:07.426Z,12840.00
2023-05-13T09:04:07.587Z,14608.00
2023-05-13T09:05:07.472Z,24992.00
2023-05-13T09:06:07.458Z,23424.00
2023-05-13T09:07:07.504Z,22688.00
2023-05-13T09:08:07.541Z,21440.00
2023-05-13T09:09:07.565Z,21344.00
2023-05-13T09:10:07.621Z,21120.00
2023-05-13T09:11:07.659Z,21408.00
2023-05-13T09:12:07.691Z,21408.00
2023-05-13T09:13:07.720Z,21440.00
2023-05-13T09:14:07.973Z,21856.00
2023-05-13T09:15:07.790Z,21856.00
2023-05-13T09:16:08.137Z,21856.00
2023-05-13T09:18:08.032Z,18752.00
2023-05-13T09:19:08.052Z,16472.00
2023-05-13T09:20:08.401Z,16248.00
2023-05-13T09:22:08.253Z,17024.00
2023-05-13T09:23:08.103Z,14728.00
2023-05-13T09:24:09.568Z,16800.00
2023-05-13T09:25:08.174Z,14600.00
2023-05-13T09:26:08.216Z,13940.00
2023-05-13T09:27:08.452Z,14992.00
2023-05-13T09:29:09.142Z,16896.00
2023-05-13T09:30:08.374Z,16200.00
2023-05-13T09:31:08.615Z,15868.00
2023-05-13T09:32:08.444Z,15460.00
2023-05-13T09:33:08.616Z,15512.00
2023-05-13T09:35:08.550Z,15384.00
2023-05-13T09:36:08.590Z,15500.00
2023-05-13T09:37:08.627Z,15728.00
2023-05-13T09:38:08.974Z,16288.00
2023-05-13T09:39:09.219Z,16320.00
2023-05-13T09:40:09.049Z,15928.00
2023-05-13T09:41:08.777Z,16096.00
2023-05-13T09:42:09.025Z,16384.00
2023-05-13T09:43:09.070Z,16576.00
2023-05-13T09:45:08.934Z,17472.00
2023-05-13T09:46:08.977Z,17984.00
2023-05-13T09:47:09.144Z,19072.00
2023-05-13T09:48:09.092Z,19808.00
2023-05-13T09:50:09.128Z,22496.00
2023-05-13T09:51:09.155Z,22432.00
2023-05-13T09:52:09.706Z,22944.00
2023-05-13T09:53:09.220Z,23168.00
2023-05-13T09:54:09.263Z,20128.00
2023-05-13T09:55:09.315Z,15648.00
2023-05-13T09:56:51.903Z,8808.00
2023-05-13T09:57:51.950Z,8612.00
2023-05-13T09:58:52.047Z,8000.00
2023-05-13T10:00:39.934Z,6404.00
2023-05-13T10:01:39.652Z,5800.00
2023-05-13T10:04:39.746Z,5672.00
2023-05-13T10:05:39.789Z,5856.00
2023-05-13T10:06:39.803Z,6088.00
2023-05-13T10:12:40.341Z,7604.00
2023-05-13T10:14:59.512Z,7580.00
2023-05-13T10:15:40.147Z,7408.00
2023-05-13T10:16:43.099Z,7236.00
2023-05-13T10:17:40.229Z,6444.00
2023-05-13T10:19:42.854Z,5272.00
2023-05-13T10:20:42.880Z,4980.00
2023-05-13T10:21:42.916Z,4692.00
2023-05-13T10:22:43.131Z,4404.00
2023-05-13T10:23:42.978Z,4184.00
2023-05-13T10:24:43.005Z,3956.00
2023-05-13T10:28:49.594Z,3296.00
2023-05-13T10:29:48.610Z,3132.00
2023-05-13T10:30:48.441Z,2960.00
2023-05-13T10:31:48.511Z,2796.00
2023-05-13T10:32:48.529Z,2612.00
2023-05-13T10:33:48.755Z,2460.00
2023-05-13T10:35:31.209Z,2312.00
2023-05-13T10:36:31.216Z,2276.00
2023-05-13T10:39:57.138Z,2232.00
2023-05-13T10:40:57.377Z,2232.00
2023-05-13T10:41:57.202Z,2280.00
2023-05-13T10:42:57.241Z,2376.00
2023-05-13T10:43:57.272Z,2488.00
2023-05-13T10:44:58.221Z,2620.00
2023-05-13T10:45:57.421Z,2780.00
2023-05-13T10:49:43.294Z,3808.00
2023-05-13T10:50:43.347Z,4368.00
2023-05-13T10:51:43.363Z,5068.00
2023-05-13T10:52:43.386Z,5968.00
2023-05-13T10:53:43.425Z,6936.00
2023-05-13T10:54:43.449Z,7804.00
2023-05-13T10:57:43.873Z,9016.00
2023-05-13T10:58:43.789Z,8948.00
2023-05-13T10:59:44.342Z,8524.00
2023-05-13T11:00:43.686Z,7872.00
2023-05-13T11:01:44.227Z,7012.00
2023-05-13T11:02:43.849Z,6004.00
2023-05-13T11:03:43.878Z,5108.00
2023-05-13T11:04:43.769Z,4364.00
2023-05-13T11:05:43.835Z,3692.00
2023-05-13T11:06:43.863Z,3116.00
2023-05-13T11:07:43.874Z,2704.00
2023-05-13T11:09:43.935Z,2264.00
2023-05-13T11:10:43.968Z,2092.00
2023-05-13T11:11:44.009Z,1908.00
2023-05-13T11:12:44.030Z,1680.00
2023-05-13T11:13:44.058Z,1472.00
2023-05-13T11:14:44.092Z,1280.00
2023-05-13T11:15:45.661Z,1092.00
2023-05-13T11:16:44.374Z,876.00
2023-05-13T11:17:44.200Z,676.00
2023-05-13T11:22:53.465Z,488.00
2023-05-13T11:23:53.678Z,508.00
2023-05-13T11:24:53.807Z,556.00
2023-05-13T11:25:53.519Z,608.00
2023-05-13T11:26:53.767Z,668.00
2023-05-13T11:27:53.582Z,708.00
2023-05-13T11:28:53.614Z,768.00
2023-05-13T11:29:53.643Z,864.00
2023-05-13T11:30:53.682Z,992.00
2023-05-13T11:31:53.739Z,1128.00
2023-05-13T11:32:53.757Z,1264.00
2023-05-13T11:33:53.765Z,1364.00
2023-05-13T11:34:53.791Z,1440.00
2023-05-13T11:35:53.825Z,1484.00
2023-05-13T11:36:53.857Z,1512.00
2023-05-13T11:37:53.886Z,1536.00
2023-05-13T11:38:53.933Z,1588.00
2023-05-13T11:39:53.947Z,1628.00
2023-05-13T11:40:56.603Z,1652.00
2023-05-13T11:41:54.018Z,1692.00
2023-05-13T11:42:54.038Z,1772.00
2023-05-13T11:43:54.671Z,1872.00
2023-05-13T11:44:54.093Z,1972.00
2023-05-13T11:45:54.183Z,2072.00
2023-05-13T11:46:54.153Z,2208.00
2023-05-13T11:47:54.250Z,2336.00
2023-05-13T11:48:54.214Z,2432.00
2023-05-13T11:49:55.460Z,2544.00
2023-05-13T11:50:54.277Z,2684.00
2023-05-13T11:51:54.303Z,2896.00
2023-05-13T11:52:54.331Z,3152.00
2023-05-13T11:53:54.367Z,3460.00
2023-05-13T11:54:54.464Z,3792.00
2023-05-13T11:55:54.425Z,4132.00
2023-05-13T11:56:54.451Z,4524.00
2023-05-13T11:57:54.487Z,4972.00
2023-05-13T11:58:54.517Z,5456.00
2023-05-13T11:59:54.554Z,5880.00
2023-05-13T12:00:54.568Z,6212.00
2023-05-13T12:01:54.646Z,6424.00
2023-05-13T12:02:54.698Z,6616.00
2023-05-13T12:03:54.661Z,6656.00
2023-05-13T12:04:54.706Z,6556.00
2023-05-13T12:05:54.728Z,6308.00
2023-05-13T12:06:54.745Z,6072.00
2023-05-13T12:07:54.792Z,5976.00
2023-05-13T12:08:54.804Z,5944.00
2023-05-13T12:09:54.834Z,5904.00
2023-05-13T12:10:55.000Z,5764.00
2023-05-13T12:11:54.897Z,5692.00
2023-05-13T12:12:54.930Z,5576.00
2023-05-13T12:13:54.951Z,5460.00
2023-05-13T12:14:54.987Z,5440.00
2023-05-13T12:15:55.060Z,5392.00
2023-05-13T12:16:55.046Z,5300.00
2023-05-13T12:17:55.133Z,5192.00
2023-05-13T12:18:55.107Z,5048.00
2023-05-13T12:19:55.133Z,4880.00
2023-05-13T12:20:55.157Z,4640.00
2023-05-13T12:21:55.189Z,4392.00
2023-05-13T12:22:55.228Z,4172.00
2023-05-13T12:23:55.251Z,3980.00
2023-05-13T12:25:42.856Z,3772.00
2023-05-13T12:26:42.892Z,3656.00
2023-05-13T12:27:42.895Z,3540.00
2023-05-13T12:28:42.927Z,3404.00
2023-05-13T12:29:42.957Z,3284.00
2023-05-13T12:30:43.005Z,3184.00
2023-05-13T12:31:43.090Z,3232.00
2023-05-13T12:32:44.566Z,3404.00
2023-05-13T12:33:43.088Z,3720.00
2023-05-13T12:34:43.105Z,4192.00
2023-05-13T12:35:43.142Z,4520.00
2023-05-13T12:36:43.194Z,4656.00
2023-05-13T12:37:43.190Z,4660.00
2023-05-13T12:38:43.224Z,4584.00
2023-05-13T12:39:43.252Z,4680.00
2023-05-13T12:40:43.294Z,5380.00
2023-05-13T12:41:43.317Z,6324.00
2023-05-13T12:42:43.367Z,7252.00
2023-05-13T12:43:43.370Z,8076.00
2023-05-13T12:44:43.406Z,8760.00
2023-05-13T12:45:44.886Z,9168.00
2023-05-13T12:46:43.622Z,9304.00
2023-05-13T12:47:43.519Z,9256.00
2023-05-13T12:48:43.519Z,9108.00
2023-05-13T12:49:43.548Z,8956.00
2023-05-13T12:50:43.580Z,8952.00
2023-05-13T12:51:43.618Z,9024.00
2023-05-13T12:52:43.642Z,9240.00
2023-05-13T12:53:43.665Z,9576.00
2023-05-13T12:54:43.695Z,9892.00
2023-05-13T12:55:43.725Z,10072.00
2023-05-13T12:56:43.762Z,10004.00
2023-05-13T12:57:43.791Z,9860.00
2023-05-13T12:58:43.832Z,9828.00
2023-05-13T12:59:43.841Z,9736.00
2023-05-13T13:00:43.916Z,9536.00
2023-05-13T13:01:43.942Z,9272.00
2023-05-13T13:02:43.965Z,9120.00
2023-05-13T13:03:44.072Z,8976.00
2023-05-13T13:04:43.996Z,8752.00
2023-05-13T13:05:44.023Z,8384.00
2023-05-13T13:06:44.065Z,7964.00
2023-05-13T13:07:44.086Z,7772.00
2023-05-13T13:08:44.117Z,7720.00
2023-05-13T13:09:44.157Z,7772.00
2023-05-13T13:10:44.183Z,7708.00
2023-05-13T13:11:44.209Z,7536.00
2023-05-13T13:12:44.236Z,7092.00
2023-05-13T13:13:44.268Z,6852.00
2023-05-13T13:14:44.321Z,6680.00
2023-05-13T13:15:44.336Z,6728.00
2023-05-13T13:16:44.458Z,6744.00
2023-05-13T13:18:44.438Z,6744.00
2023-05-13T13:19:44.452Z,6692.00
2023-05-13T13:20:44.485Z,6592.00
2023-05-13T13:21:44.515Z,6488.00
2023-05-13T13:22:44.755Z,6216.00
2023-05-13T13:23:45.303Z,5924.00
2023-05-13T13:24:44.603Z,5576.00
2023-05-13T13:25:44.837Z,5288.00
2023-05-13T13:26:44.676Z,5120.00
2023-05-13T13:27:44.697Z,4884.00
2023-05-13T13:28:44.950Z,4564.00
2023-05-13T13:29:44.774Z,4392.00
2023-05-13T13:30:44.826Z,4448.00
2023-05-13T13:31:44.884Z,4600.00
2023-05-13T13:32:44.919Z,4880.00
2023-05-13T13:33:45.501Z,6444.00
2023-05-13T13:34:45.123Z,6620.00
2023-05-13T13:35:44.961Z,7348.00
2023-05-13T13:36:44.981Z,7492.00
2023-05-13T13:37:45.008Z,7416.00
2023-05-13T13:38:47.867Z,8452.00
2023-05-13T13:39:45.280Z,7764.00
2023-05-13T13:40:45.105Z,7860.00
2023-05-13T13:41:45.141Z,8740.00
2023-05-13T13:42:45.375Z,8104.00
2023-05-13T13:43:45.188Z,8556.00
2023-05-13T13:44:45.225Z,9896.00
2023-05-13T13:45:45.288Z,8712.00
2023-05-13T13:46:45.349Z,8136.00
2023-05-13T13:47:45.368Z,7776.00
2023-05-13T13:48:45.337Z,7424.00
2023-05-13T13:49:45.371Z,7912.00
2023-05-13T13:50:47.500Z,7776.00
2023-05-13T13:51:48.123Z,6404.00
2023-05-13T13:52:45.472Z,6280.00
2023-05-13T13:53:45.487Z,7024.00
2023-05-13T13:54:45.524Z,6692.00
2023-05-13T13:55:45.560Z,8084.00
2023-05-13T13:56:45.587Z,7124.00
2023-05-13T13:57:45.616Z,8364.00
2023-05-13T13:58:45.650Z,8512.00
2023-05-13T13:59:45.679Z,8356.00
2023-05-13T14:00:45.753Z,8256.00
2023-05-13T14:01:45.780Z,8160.00
2023-05-13T14:02:45.860Z,8020.00
2023-05-13T14:03:45.889Z,8060.00
2023-05-13T14:04:45.839Z,8452.00
2023-05-13T14:06:33.487Z,9080.00
2023-05-13T14:07:33.472Z,9708.00
2023-05-13T14:08:33.500Z,9324.00
2023-05-13T14:09:33.522Z,8500.00
2023-05-13T14:10:33.573Z,7964.00
2023-05-13T14:11:33.590Z,6724.00
2023-05-13T14:12:33.622Z,5552.00
2023-05-13T14:13:33.657Z,5332.00
2023-05-13T14:14:33.684Z,4592.00
2023-05-13T14:15:33.734Z,3928.00
2023-05-13T14:16:33.752Z,3804.00
2023-05-13T14:17:33.865Z,3600.00
2023-05-13T14:18:33.899Z,3368.00
2023-05-13T14:19:33.920Z,3392.00
2023-05-13T14:20:33.877Z,3492.00
2023-05-13T14:21:33.915Z,3644.00
2023-05-13T14:22:33.955Z,3748.00
2023-05-13T14:23:33.981Z,3804.00
2023-05-13T14:24:34.084Z,3872.00
2023-05-13T14:25:34.045Z,3924.00
2023-05-13T14:26:34.067Z,3920.00
2023-05-13T14:27:34.117Z,3960.00
2023-05-13T14:28:34.131Z,4104.00
2023-05-13T14:29:34.164Z,4288.00
2023-05-13T14:30:34.193Z,4500.00
2023-05-13T14:31:34.279Z,4772.00
2023-05-13T14:32:34.313Z,4956.00
2023-05-13T14:33:34.292Z,4940.00
2023-05-13T14:34:34.584Z,5292.00
2023-05-13T14:35:34.354Z,5612.00
2023-05-13T14:36:34.383Z,5744.00
2023-05-13T14:38:34.442Z,5508.00
2023-05-13T14:39:34.510Z,4976.00
2023-05-13T14:40:34.507Z,5524.00
2023-05-13T14:42:34.566Z,5244.00
2023-05-13T14:43:35.305Z,5200.00
2023-05-13T14:48:34.753Z,5412.00
2023-05-13T14:49:34.781Z,5604.00
2023-05-13T14:50:34.836Z,5792.00
2023-05-13T14:51:34.841Z,6032.00
2023-05-13T14:52:34.871Z,6320.00
2023-05-13T14:53:34.904Z,6676.00
2023-05-13T14:54:34.931Z,7068.00
2023-05-13T14:55:34.994Z,7488.00
2023-05-13T14:56:34.994Z,7848.00
2023-05-13T14:57:35.025Z,8128.00
2023-05-13T14:58:35.054Z,8360.00
2023-05-13T14:59:35.096Z,8436.00
2023-05-13T15:00:35.153Z,8308.00
2023-05-13T15:01:35.382Z,7992.00
2023-05-13T15:02:35.244Z,7512.00
2023-05-13T15:04:17.762Z,6796.00
2023-05-13T15:05:17.793Z,6692.00
2023-05-13T15:06:17.845Z,6768.00
2023-05-13T15:07:17.861Z,6976.00
2023-05-13T15:08:17.886Z,7252.00
2023-05-13T15:09:17.920Z,7480.00
2023-05-13T15:10:17.947Z,6912.00
2023-05-13T15:11:17.980Z,7568.00
2023-05-13T15:12:18.106Z,7896.00
2023-05-13T15:13:18.047Z,7956.00
2023-05-13T15:14:18.107Z,7812.00
2023-05-13T15:15:18.105Z,7776.00
2023-05-13T15:16:18.190Z,7676.00
2023-05-13T15:17:18.242Z,7476.00
2023-05-13T15:18:18.201Z,7188.00
2023-05-13T15:19:18.233Z,6916.00
2023-05-13T15:20:18.265Z,6700.00
2023-05-13T15:21:18.305Z,6572.00
2023-05-13T15:22:18.368Z,5784.00
2023-05-13T15:23:18.356Z,5668.00
2023-05-13T15:24:18.389Z,5552.00
2023-05-13T15:25:18.425Z,5516.00
2023-05-13T15:26:18.460Z,5516.00
2023-05-13T15:27:18.484Z,5600.00
2023-05-13T15:28:18.525Z,5692.00
2023-05-13T15:29:18.550Z,5712.00
2023-05-13T15:30:18.594Z,5604.00
2023-05-13T15:31:18.651Z,5408.00
2023-05-13T15:32:18.639Z,5196.00
2023-05-13T15:33:18.681Z,5144.00
2023-05-13T15:34:18.732Z,5104.00
2023-05-13T15:35:18.744Z,4580.00
2023-05-13T15:36:18.771Z,4340.00
2023-05-13T15:37:18.804Z,4004.00
2023-05-13T15:38:18.847Z,3780.00
2023-05-13T15:39:18.861Z,3648.00
2023-05-13T15:40:19.190Z,3604.00
2023-05-13T15:41:18.923Z,3608.00
2023-05-13T15:42:18.951Z,3648.00
2023-05-13T15:43:19.004Z,3580.00
2023-05-13T15:44:19.023Z,3440.00
2023-05-13T15:45:19.049Z,3208.00
2023-05-13T15:46:19.230Z,2964.00
2023-05-13T15:47:19.219Z,2792.00
2023-05-13T15:48:19.225Z,2724.00
2023-05-13T15:49:19.174Z,2740.00
2023-05-13T15:50:19.303Z,2808.00
2023-05-13T15:51:19.232Z,2836.00
2023-05-13T15:52:19.266Z,2800.00
2023-05-13T15:53:19.297Z,2736.00
2023-05-13T15:54:19.355Z,2692.00
2023-05-13T15:55:19.363Z,2680.00
2023-05-13T15:56:19.388Z,2680.00
2023-05-13T15:57:19.420Z,2680.00
2023-05-13T15:58:19.451Z,2664.00
2023-05-13T15:59:19.489Z,2632.00
2023-05-13T16:00:19.615Z,2588.00
2023-05-13T16:01:19.571Z,2560.00
2023-05-13T16:02:19.579Z,2584.00
2023-05-13T16:03:19.607Z,2640.00
2023-05-13T16:04:19.661Z,2720.00
2023-05-13T16:05:19.672Z,2800.00
2023-05-13T16:06:19.702Z,2864.00
2023-05-13T16:07:19.728Z,2924.00
2023-05-13T16:08:19.758Z,3040.00
2023-05-13T16:09:19.795Z,3188.00
2023-05-13T16:10:19.918Z,3316.00
2023-05-13T16:11:19.854Z,3440.00
2023-05-13T16:12:19.883Z,3576.00
2023-05-13T16:13:19.919Z,3700.00
2023-05-13T16:14:19.951Z,3808.00
2023-05-13T16:15:19.977Z,3896.00
2023-05-13T16:16:20.040Z,4004.00
2023-05-13T16:17:22.651Z,4104.00
2023-05-13T16:19:07.716Z,4228.00
2023-05-13T16:20:08.985Z,4256.00
2023-05-13T16:21:07.688Z,4204.00
2023-05-13T16:22:07.712Z,4076.00
2023-05-13T16:25:35.463Z,3524.00
2023-05-13T16:26:35.473Z,3456.00
2023-05-13T16:27:35.504Z,3400.00
2023-05-13T16:28:35.541Z,3336.00
2023-05-13T16:29:35.580Z,3244.00
2023-05-13T16:30:35.598Z,3136.00
2023-05-13T16:31:35.691Z,3000.00
2023-05-13T16:32:35.713Z,2872.00
2023-05-13T16:33:35.685Z,2708.00
2023-05-13T16:34:35.716Z,2572.00
2023-05-13T16:35:35.745Z,2520.00
2023-05-13T16:36:35.810Z,2472.00